createdAt,value
2023-01-09T00:16:15.049Z,8.24
2023-01-09T00:36:15.017Z,8.16
2023-01-09T00:56:14.977Z,8.03
2023-01-09T01:36:14.944Z,7.64
2023-01-09T01:56:14.883Z,7.6
2023-01-09T02:16:14.901Z,7.54
2023-01-09T02:36:14.823Z,7.41
2023-01-09T02:56:14.797Z,7.24
2023-01-09T03:16:14.763Z,7.01
2023-01-09T03:36:14.732Z,7.15
2023-01-09T03:56:14.697Z,7.19
2023-01-09T04:16:14.694Z,7.19
2023-01-09T04:36:14.659Z,7.1
2023-01-09T04:56:14.652Z,7.03
2023-01-09T05:16:14.590Z,6.73
2023-01-09T05:36:14.536Z,6.51
2023-01-09T05:56:14.504Z,6.61
2023-01-09T06:16:14.513Z,6.76
2023-01-09T06:36:14.453Z,6.91
2023-01-09T06:56:14.430Z,6.7
2023-01-09T07:16:14.456Z,6.52
2023-01-09T07:36:14.355Z,6.72
2023-01-09T07:56:14.327Z,7
2023-01-09T08:16:14.404Z,7.16
2023-01-09T08:36:14.331Z,7.29
2023-01-09T08:56:14.231Z,7.14
2023-01-09T09:56:14.134Z,7.15
2023-01-09T10:16:14.231Z,7.39
2023-01-09T10:56:14.043Z,8.1
2023-01-09T11:16:14.058Z,8.11
2023-01-09T11:36:13.975Z,8.11
2023-01-09T11:56:13.971Z,8.09
2023-01-09T12:16:13.924Z,8.01
2023-01-09T12:36:13.865Z,8.1
2023-01-09T12:56:13.886Z,7.7
2023-01-09T13:16:13.899Z,7.75
2023-01-09T13:56:13.807Z,7.68
2023-01-09T14:16:13.756Z,7.68
2023-01-09T14:36:13.679Z,7.67
2023-01-09T14:56:13.643Z,7.49
2023-01-09T15:36:13.575Z,6.76
2023-01-09T15:56:13.545Z,6.81
2023-01-09T16:16:13.637Z,6.72
2023-01-09T16:36:13.505Z,6.63
2023-01-09T16:56:13.480Z,6.7
2023-01-09T17:16:13.450Z,6.81
2023-01-09T17:36:13.452Z,6.78
2023-01-09T17:56:13.378Z,6.72
2023-01-09T18:36:13.355Z,6.11
2023-01-09T18:56:13.280Z,5.9
2023-01-09T19:16:13.305Z,6.07
2023-01-09T19:36:13.399Z,6.05
2023-01-09T19:56:13.253Z,6.16
2023-01-09T20:16:13.227Z,6.26
2023-01-09T20:36:13.127Z,6.4
2023-01-09T20:56:13.125Z,6.52
2023-01-09T21:16:13.106Z,6.49
2023-01-09T21:36:13.038Z,6.45
2023-01-09T21:56:12.988Z,6.27
2023-01-09T22:16:13.024Z,6.28
2023-01-09T22:36:12.938Z,6.27
2023-01-09T22:56:12.937Z,6.07
2023-01-09T23:16:12.940Z,6.02
2023-01-09T23:36:12.885Z,5.93
2023-01-09T23:56:12.879Z,6.11
